sensor_id;sensor_type;location;lat;lon;timestamp;P1;durP1;ratioP1;P2;durP2;ratioP2
41966;SDS011;27656;53.068;8.818;2023-12-28T00:02:17;3.53;;;1.70;;
41966;SDS011;27656;53.068;8.818;2023-12-28T00:04:43;3.57;;;2.00;;
41966;SDS011;27656;53.068;8.818;2023-12-28T00:07:10;6.03;;;2.03;;
41966;SDS011;27656;53.068;8.818;2023-12-28T00:09:36;4.93;;;1.90;;
41966;SDS011;27656;53.068;8.818;2023-12-28T00:12:03;4.00;;;1.70;;
41966;SDS011;27656;53.068;8.818;2023-12-28T00:14:31;5.17;;;1.80;;
41966;SDS011;27656;53.068;8.818;2023-12-28T00:16:57;5.00;;;1.90;;
41966;SDS011;27656;53.068;8.818;2023-12-28T00:19:24;5.00;;;2.07;;
41966;SDS011;27656;53.068;8.818;2023-12-28T00:21:50;3.20;;;1.90;;
41966;SDS011;27656;53.068;8.818;2023-12-28T00:24:19;5.13;;;1.83;;
41966;SDS011;27656;53.068;8.818;2023-12-28T00:26:46;3.77;;;1.97;;
41966;SDS011;27656;53.068;8.818;2023-12-28T00:29:13;4.73;;;1.90;;
41966;SDS011;27656;53.068;8.818;2023-12-28T00:31:39;3.87;;;1.80;;
41966;SDS011;27656;53.068;8.818;2023-12-28T00:34:06;4.60;;;2.00;;
41966;SDS011;27656;53.068;8.818;2023-12-28T00:36:32;5.27;;;2.30;;
41966;SDS011;27656;53.068;8.818;2023-12-28T00:38:59;4.13;;;2.00;;
41966;SDS011;27656;53.068;8.818;2023-12-28T00:41:25;3.90;;;2.20;;
41966;SDS011;27656;53.068;8.818;2023-12-28T00:43:52;4.87;;;1.80;;
41966;SDS011;27656;53.068;8.818;2023-12-28T00:46:18;4.07;;;2.10;;
41966;SDS011;27656;53.068;8.818;2023-12-28T00:48:45;3.83;;;2.07;;
41966;SDS011;27656;53.068;8.818;2023-12-28T00:51:11;3.37;;;2.27;;
41966;SDS011;27656;53.068;8.818;2023-12-28T00:53:38;6.23;;;2.33;;
41966;SDS011;27656;53.068;8.818;2023-12-28T00:56:04;5.53;;;2.13;;
41966;SDS011;27656;53.068;8.818;2023-12-28T00:58:31;2.70;;;2.00;;
41966;SDS011;27656;53.068;8.818;2023-12-28T01:00:57;4.17;;;2.17;;
41966;SDS011;27656;53.068;8.818;2023-12-28T01:03:24;6.00;;;2.27;;
41966;SDS011;27656;53.068;8.818;2023-12-28T01:05:51;4.07;;;2.10;;
41966;SDS011;27656;53.068;8.818;2023-12-28T01:08:18;2.80;;;2.00;;
41966;SDS011;27656;53.068;8.818;2023-12-28T01:10:45;6.13;;;2.10;;
41966;SDS011;27656;53.068;8.818;2023-12-28T01:13:11;3.30;;;2.10;;
41966;SDS011;27656;53.068;8.818;2023-12-28T01:15:38;4.70;;;1.80;;
41966;SDS011;27656;53.068;8.818;2023-12-28T01:18:04;3.47;;;1.83;;
41966;SDS011;27656;53.068;8.818;2023-12-28T01:20:31;3.57;;;1.97;;
41966;SDS011;27656;53.068;8.818;2023-12-28T01:22:58;5.57;;;2.43;;
41966;SDS011;27656;53.068;8.818;2023-12-28T01:25:24;4.03;;;2.23;;
41966;SDS011;27656;53.068;8.818;2023-12-28T01:27:51;5.77;;;2.00;;
41966;SDS011;27656;53.068;8.818;2023-12-28T01:30:17;3.50;;;2.50;;
41966;SDS011;27656;53.068;8.818;2023-12-28T01:32:44;3.90;;;2.00;;
41966;SDS011;27656;53.068;8.818;2023-12-28T01:35:10;4.77;;;2.47;;
41966;SDS011;27656;53.068;8.818;2023-12-28T01:37:37;6.00;;;2.20;;
41966;SDS011;27656;53.068;8.818;2023-12-28T01:40:03;3.33;;;2.17;;
41966;SDS011;27656;53.068;8.818;2023-12-28T01:42:30;3.17;;;1.77;;
41966;SDS011;27656;53.068;8.818;2023-12-28T01:44:58;2.40;;;1.87;;
41966;SDS011;27656;53.068;8.818;2023-12-28T01:47:25;5.07;;;2.17;;
41966;SDS011;27656;53.068;8.818;2023-12-28T01:49:52;4.30;;;2.33;;
41966;SDS011;27656;53.068;8.818;2023-12-28T01:52:20;4.07;;;2.40;;
41966;SDS011;27656;53.068;8.818;2023-12-28T01:54:47;3.10;;;2.43;;
41966;SDS011;27656;53.068;8.818;2023-12-28T01:57:14;4.03;;;1.90;;
41966;SDS011;27656;53.068;8.818;2023-12-28T01:59:42;4.57;;;2.47;;
41966;SDS011;27656;53.068;8.818;2023-12-28T02:02:10;3.90;;;2.70;;
41966;SDS011;27656;53.068;8.818;2023-12-28T02:04:37;4.80;;;2.50;;
41966;SDS011;27656;53.068;8.818;2023-12-28T02:07:04;4.67;;;2.50;;
41966;SDS011;27656;53.068;8.818;2023-12-28T02:09:31;5.23;;;2.73;;
41966;SDS011;27656;53.068;8.818;2023-12-28T02:11:58;7.13;;;2.63;;
41966;SDS011;27656;53.068;8.818;2023-12-28T02:14:24;4.40;;;2.50;;
41966;SDS011;27656;53.068;8.818;2023-12-28T02:16:56;6.47;;;2.40;;
41966;SDS011;27656;53.068;8.818;2023-12-28T02:22:32;5.27;;;2.67;;
41966;SDS011;27656;53.068;8.818;2023-12-28T02:27:31;3.27;;;2.23;;
41966;SDS011;27656;53.068;8.818;2023-12-28T02:29:59;3.07;;;2.43;;
41966;SDS011;27656;53.068;8.818;2023-12-28T02:32:28;3.97;;;2.80;;
41966;SDS011;27656;53.068;8.818;2023-12-28T02:35:06;8.10;;;2.67;;
41966;SDS011;27656;53.068;8.818;2023-12-28T02:37:43;4.93;;;2.53;;
41966;SDS011;27656;53.068;8.818;2023-12-28T02:40:11;3.00;;;2.43;;
41966;SDS011;27656;53.068;8.818;2023-12-28T02:42:41;6.40;;;2.77;;
41966;SDS011;27656;53.068;8.818;2023-12-28T02:45:08;4.07;;;2.60;;
41966;SDS011;27656;53.068;8.818;2023-12-28T02:47:35;4.40;;;2.63;;
41966;SDS011;27656;53.068;8.818;2023-12-28T02:50:01;5.23;;;2.77;;
41966;SDS011;27656;53.068;8.818;2023-12-28T02:52:28;5.53;;;2.73;;
41966;SDS011;27656;53.068;8.818;2023-12-28T02:54:55;5.33;;;3.00;;
41966;SDS011;27656;53.068;8.818;2023-12-28T02:57:21;4.47;;;2.70;;
41966;SDS011;27656;53.068;8.818;2023-12-28T02:59:48;3.50;;;2.30;;
41966;SDS011;27656;53.068;8.818;2023-12-28T03:02:14;4.93;;;2.47;;
41966;SDS011;27656;53.068;8.818;2023-12-28T03:04:41;5.80;;;2.83;;
41966;SDS011;27656;53.068;8.818;2023-12-28T03:07:08;4.07;;;2.50;;
41966;SDS011;27656;53.068;8.818;2023-12-28T03:09:34;3.73;;;2.53;;
41966;SDS011;27656;53.068;8.818;2023-12-28T03:12:01;3.93;;;2.50;;
41966;SDS011;27656;53.068;8.818;2023-12-28T03:14:27;6.73;;;2.67;;
41966;SDS011;27656;53.068;8.818;2023-12-28T03:16:54;3.87;;;2.50;;
41966;SDS011;27656;53.068;8.818;2023-12-28T03:19:20;4.87;;;2.93;;
41966;SDS011;27656;53.068;8.818;2023-12-28T03:21:47;3.77;;;2.63;;
41966;SDS011;27656;53.068;8.818;2023-12-28T03:24:13;6.20;;;2.23;;
41966;SDS011;27656;53.068;8.818;2023-12-28T03:26:40;4.67;;;2.30;;
41966;SDS011;27656;53.068;8.818;2023-12-28T03:29:07;3.70;;;2.30;;
41966;SDS011;27656;53.068;8.818;2023-12-28T03:31:38;2.80;;;2.10;;
41966;SDS011;27656;53.068;8.818;2023-12-28T03:34:06;4.47;;;2.40;;
41966;SDS011;27656;53.068;8.818;2023-12-28T03:36:32;3.40;;;2.30;;
41966;SDS011;27656;53.068;8.818;2023-12-28T03:38:59;4.80;;;2.50;;
41966;SDS011;27656;53.068;8.818;2023-12-28T03:41:25;4.30;;;2.40;;
41966;SDS011;27656;53.068;8.818;2023-12-28T03:43:52;5.00;;;2.40;;
41966;SDS011;27656;53.068;8.818;2023-12-28T03:46:18;5.43;;;2.40;;
41966;SDS011;27656;53.068;8.818;2023-12-28T03:48:45;5.00;;;2.70;;
41966;SDS011;27656;53.068;8.818;2023-12-28T03:51:14;4.83;;;2.53;;
41966;SDS011;27656;53.068;8.818;2023-12-28T03:53:44;4.17;;;2.50;;
41966;SDS011;27656;53.068;8.818;2023-12-28T03:56:21;10.33;;;5.23;;
41966;SDS011;27656;53.068;8.818;2023-12-28T03:58:51;6.57;;;3.20;;
41966;SDS011;27656;53.068;8.818;2023-12-28T04:01:18;5.70;;;2.70;;
41966;SDS011;27656;53.068;8.818;2023-12-28T04:03:46;4.20;;;2.33;;
41966;SDS011;27656;53.068;8.818;2023-12-28T04:06:13;4.97;;;2.70;;
41966;SDS011;27656;53.068;8.818;2023-12-28T04:08:41;5.17;;;2.60;;
41966;SDS011;27656;53.068;8.818;2023-12-28T04:11:08;5.53;;;2.40;;
41966;SDS011;27656;53.068;8.818;2023-12-28T04:13:35;7.23;;;2.93;;
41966;SDS011;27656;53.068;8.818;2023-12-28T04:16:02;3.87;;;2.43;;
41966;SDS011;27656;53.068;8.818;2023-12-28T04:18:29;4.93;;;2.80;;
41966;SDS011;27656;53.068;8.818;2023-12-28T04:20:56;4.17;;;2.53;;
41966;SDS011;27656;53.068;8.818;2023-12-28T04:23:22;5.37;;;2.27;;
41966;SDS011;27656;53.068;8.818;2023-12-28T04:25:49;8.00;;;3.03;;
41966;SDS011;27656;53.068;8.818;2023-12-28T04:28:15;5.70;;;2.70;;
41966;SDS011;27656;53.068;8.818;2023-12-28T04:30:42;4.90;;;2.50;;
41966;SDS011;27656;53.068;8.818;2023-12-28T04:33:08;3.77;;;2.50;;
41966;SDS011;27656;53.068;8.818;2023-12-28T04:35:35;5.90;;;3.37;;
41966;SDS011;27656;53.068;8.818;2023-12-28T04:38:01;7.70;;;3.23;;
41966;SDS011;27656;53.068;8.818;2023-12-28T04:40:28;5.10;;;2.93;;
41966;SDS011;27656;53.068;8.818;2023-12-28T04:42:54;4.70;;;2.90;;
41966;SDS011;27656;53.068;8.818;2023-12-28T04:45:21;4.37;;;2.97;;
41966;SDS011;27656;53.068;8.818;2023-12-28T04:47:48;5.50;;;2.70;;
41966;SDS011;27656;53.068;8.818;2023-12-28T04:50:15;6.10;;;3.00;;
41966;SDS011;27656;53.068;8.818;2023-12-28T04:52:41;5.93;;;2.93;;
41966;SDS011;27656;53.068;8.818;2023-12-28T04:55:08;6.03;;;2.60;;
41966;SDS011;27656;53.068;8.818;2023-12-28T04:57:34;5.70;;;2.30;;
41966;SDS011;27656;53.068;8.818;2023-12-28T05:00:01;4.80;;;2.90;;
41966;SDS011;27656;53.068;8.818;2023-12-28T05:02:28;4.33;;;2.67;;
41966;SDS011;27656;53.068;8.818;2023-12-28T05:04:54;5.50;;;2.93;;
41966;SDS011;27656;53.068;8.818;2023-12-28T05:07:21;4.63;;;2.60;;
41966;SDS011;27656;53.068;8.818;2023-12-28T05:09:47;4.03;;;3.20;;
41966;SDS011;27656;53.068;8.818;2023-12-28T05:12:14;6.03;;;2.60;;
41966;SDS011;27656;53.068;8.818;2023-12-28T05:14:40;4.30;;;2.50;;
41966;SDS011;27656;53.068;8.818;2023-12-28T05:17:07;4.63;;;2.60;;
41966;SDS011;27656;53.068;8.818;2023-12-28T05:19:33;5.70;;;2.90;;
41966;SDS011;27656;53.068;8.818;2023-12-28T05:22:00;3.77;;;2.70;;
41966;SDS011;27656;53.068;8.818;2023-12-28T05:24:32;4.17;;;2.77;;
41966;SDS011;27656;53.068;8.818;2023-12-28T05:26:59;5.00;;;2.90;;
41966;SDS011;27656;53.068;8.818;2023-12-28T05:29:25;5.47;;;2.80;;
41966;SDS011;27656;53.068;8.818;2023-12-28T05:31:52;5.63;;;2.77;;
41966;SDS011;27656;53.068;8.818;2023-12-28T05:34:18;7.20;;;3.00;;
41966;SDS011;27656;53.068;8.818;2023-12-28T05:36:45;4.57;;;2.97;;
41966;SDS011;27656;53.068;8.818;2023-12-28T05:39:14;8.70;;;3.10;;
41966;SDS011;27656;53.068;8.818;2023-12-28T05:41:41;4.53;;;2.60;;
41966;SDS011;27656;53.068;8.818;2023-12-28T05:44:07;6.73;;;2.93;;
41966;SDS011;27656;53.068;8.818;2023-12-28T05:46:34;6.37;;;3.00;;
41966;SDS011;27656;53.068;8.818;2023-12-28T05:49:00;7.23;;;2.77;;
41966;SDS011;27656;53.068;8.818;2023-12-28T05:51:27;6.33;;;3.07;;
41966;SDS011;27656;53.068;8.818;2023-12-28T05:53:53;6.17;;;2.70;;
41966;SDS011;27656;53.068;8.818;2023-12-28T05:56:19;6.10;;;3.13;;
41966;SDS011;27656;53.068;8.818;2023-12-28T05:58:46;4.83;;;2.97;;
41966;SDS011;27656;53.068;8.818;2023-12-28T06:01:12;5.97;;;2.97;;
41966;SDS011;27656;53.068;8.818;2023-12-28T06:03:39;6.30;;;2.60;;
41966;SDS011;27656;53.068;8.818;2023-12-28T06:06:05;3.73;;;2.70;;
41966;SDS011;27656;53.068;8.818;2023-12-28T06:08:32;8.10;;;3.20;;
41966;SDS011;27656;53.068;8.818;2023-12-28T06:10:58;5.53;;;2.70;;
41966;SDS011;27656;53.068;8.818;2023-12-28T06:13:25;4.83;;;2.37;;
41966;SDS011;27656;53.068;8.818;2023-12-28T06:15:52;8.87;;;2.73;;
41966;SDS011;27656;53.068;8.818;2023-12-28T06:18:18;10.33;;;2.93;;
41966;SDS011;27656;53.068;8.818;2023-12-28T06:20:45;6.30;;;2.80;;
41966;SDS011;27656;53.068;8.818;2023-12-28T06:23:12;5.20;;;2.77;;
41966;SDS011;27656;53.068;8.818;2023-12-28T06:25:38;5.83;;;2.40;;
41966;SDS011;27656;53.068;8.818;2023-12-28T06:28:05;6.43;;;2.57;;
41966;SDS011;27656;53.068;8.818;2023-12-28T06:30:31;5.90;;;2.40;;
41966;SDS011;27656;53.068;8.818;2023-12-28T06:32:58;6.47;;;2.23;;
41966;SDS011;27656;53.068;8.818;2023-12-28T06:35:24;6.13;;;2.70;;
41966;SDS011;27656;53.068;8.818;2023-12-28T06:37:51;6.93;;;2.73;;
41966;SDS011;27656;53.068;8.818;2023-12-28T06:40:17;4.23;;;2.03;;
41966;SDS011;27656;53.068;8.818;2023-12-28T06:42:44;9.30;;;2.60;;
41966;SDS011;27656;53.068;8.818;2023-12-28T06:45:10;6.80;;;2.40;;
41966;SDS011;27656;53.068;8.818;2023-12-28T06:47:37;8.60;;;2.20;;
41966;SDS011;27656;53.068;8.818;2023-12-28T06:50:04;5.73;;;2.47;;
41966;SDS011;27656;53.068;8.818;2023-12-28T06:52:31;6.33;;;2.13;;
41966;SDS011;27656;53.068;8.818;2023-12-28T06:54:57;9.93;;;2.50;;
41966;SDS011;27656;53.068;8.818;2023-12-28T06:57:24;5.20;;;2.17;;
41966;SDS011;27656;53.068;8.818;2023-12-28T06:59:51;4.97;;;2.23;;
41966;SDS011;27656;53.068;8.818;2023-12-28T07:02:17;8.13;;;2.50;;
41966;SDS011;27656;53.068;8.818;2023-12-28T07:04:43;6.77;;;2.40;;
41966;SDS011;27656;53.068;8.818;2023-12-28T07:07:11;6.77;;;2.40;;
41966;SDS011;27656;53.068;8.818;2023-12-28T07:09:37;5.53;;;1.80;;
41966;SDS011;27656;53.068;8.818;2023-12-28T07:12:04;4.57;;;1.87;;
41966;SDS011;27656;53.068;8.818;2023-12-28T07:14:31;7.63;;;2.33;;
41966;SDS011;27656;53.068;8.818;2023-12-28T07:16:57;11.43;;;2.40;;
41966;SDS011;27656;53.068;8.818;2023-12-28T07:19:24;11.33;;;2.37;;
41966;SDS011;27656;53.068;8.818;2023-12-28T07:21:50;7.67;;;2.37;;
41966;SDS011;27656;53.068;8.818;2023-12-28T07:24:17;10.37;;;2.37;;
41966;SDS011;27656;53.068;8.818;2023-12-28T07:26:43;8.00;;;2.10;;
41966;SDS011;27656;53.068;8.818;2023-12-28T07:29:10;5.03;;;1.93;;
41966;SDS011;27656;53.068;8.818;2023-12-28T07:31:36;12.00;;;2.50;;
41966;SDS011;27656;53.068;8.818;2023-12-28T07:34:03;13.03;;;2.57;;
41966;SDS011;27656;53.068;8.818;2023-12-28T07:36:30;7.73;;;1.97;;
41966;SDS011;27656;53.068;8.818;2023-12-28T07:38:56;6.80;;;2.20;;
41966;SDS011;27656;53.068;8.818;2023-12-28T07:41:23;9.10;;;2.10;;
41966;SDS011;27656;53.068;8.818;2023-12-28T07:43:49;11.83;;;2.43;;
41966;SDS011;27656;53.068;8.818;2023-12-28T07:46:15;9.37;;;2.20;;
41966;SDS011;27656;53.068;8.818;2023-12-28T07:48:42;10.53;;;2.50;;
41966;SDS011;27656;53.068;8.818;2023-12-28T07:51:09;6.40;;;1.97;;
41966;SDS011;27656;53.068;8.818;2023-12-28T07:53:35;7.43;;;2.00;;
41966;SDS011;27656;53.068;8.818;2023-12-28T07:56:01;11.67;;;2.77;;
41966;SDS011;27656;53.068;8.818;2023-12-28T07:58:32;14.83;;;2.47;;
41966;SDS011;27656;53.068;8.818;2023-12-28T08:00:58;6.53;;;1.67;;
41966;SDS011;27656;53.068;8.818;2023-12-28T08:03:25;9.87;;;2.10;;
41966;SDS011;27656;53.068;8.818;2023-12-28T08:05:51;12.30;;;2.47;;
41966;SDS011;27656;53.068;8.818;2023-12-28T08:08:18;9.23;;;2.10;;
41966;SDS011;27656;53.068;8.818;2023-12-28T08:10:44;10.93;;;2.13;;
41966;SDS011;27656;53.068;8.818;2023-12-28T08:13:11;10.20;;;2.13;;
41966;SDS011;27656;53.068;8.818;2023-12-28T08:15:37;7.50;;;2.33;;
41966;SDS011;27656;53.068;8.818;2023-12-28T08:18:04;11.73;;;2.40;;
41966;SDS011;27656;53.068;8.818;2023-12-28T08:20:31;11.27;;;2.23;;
41966;SDS011;27656;53.068;8.818;2023-12-28T08:22:57;8.27;;;2.30;;
41966;SDS011;27656;53.068;8.818;2023-12-28T08:25:42;7.30;;;2.00;;
41966;SDS011;27656;53.068;8.818;2023-12-28T08:28:08;6.27;;;1.70;;
41966;SDS011;27656;53.068;8.818;2023-12-28T08:30:35;11.40;;;2.30;;
41966;SDS011;27656;53.068;8.818;2023-12-28T08:33:01;9.43;;;2.07;;
41966;SDS011;27656;53.068;8.818;2023-12-28T08:35:29;9.27;;;2.07;;
41966;SDS011;27656;53.068;8.818;2023-12-28T08:37:55;11.20;;;1.90;;
41966;SDS011;27656;53.068;8.818;2023-12-28T08:40:21;8.47;;;2.27;;
41966;SDS011;27656;53.068;8.818;2023-12-28T08:42:48;11.67;;;1.83;;
41966;SDS011;27656;53.068;8.818;2023-12-28T08:45:14;7.67;;;2.40;;
41966;SDS011;27656;53.068;8.818;2023-12-28T08:47:41;11.20;;;2.10;;
41966;SDS011;27656;53.068;8.818;2023-12-28T08:50:08;16.00;;;2.20;;
41966;SDS011;27656;53.068;8.818;2023-12-28T08:52:35;7.70;;;1.87;;
41966;SDS011;27656;53.068;8.818;2023-12-28T08:55:02;8.40;;;2.20;;
41966;SDS011;27656;53.068;8.818;2023-12-28T08:57:29;6.60;;;2.30;;
41966;SDS011;27656;53.068;8.818;2023-12-28T09:00:07;9.57;;;2.10;;
41966;SDS011;27656;53.068;8.818;2023-12-28T09:02:34;12.60;;;2.63;;
41966;SDS011;27656;53.068;8.818;2023-12-28T09:05:00;9.17;;;2.03;;
41966;SDS011;27656;53.068;8.818;2023-12-28T09:07:27;9.17;;;2.40;;
41966;SDS011;27656;53.068;8.818;2023-12-28T09:09:53;8.57;;;2.20;;
41966;SDS011;27656;53.068;8.818;2023-12-28T09:12:20;9.43;;;2.03;;
41966;SDS011;27656;53.068;8.818;2023-12-28T09:14:46;9.47;;;2.10;;
41966;SDS011;27656;53.068;8.818;2023-12-28T09:17:13;10.90;;;2.00;;
41966;SDS011;27656;53.068;8.818;2023-12-28T09:19:39;6.60;;;2.10;;
41966;SDS011;27656;53.068;8.818;2023-12-28T09:22:07;11.17;;;2.13;;
41966;SDS011;27656;53.068;8.818;2023-12-28T09:24:33;8.40;;;1.90;;
41966;SDS011;27656;53.068;8.818;2023-12-28T09:27:00;11.10;;;2.30;;
41966;SDS011;27656;53.068;8.818;2023-12-28T09:29:26;9.40;;;2.33;;
41966;SDS011;27656;53.068;8.818;2023-12-28T09:31:53;8.33;;;2.57;;
41966;SDS011;27656;53.068;8.818;2023-12-28T09:34:20;11.17;;;2.07;;
41966;SDS011;27656;53.068;8.818;2023-12-28T09:36:46;10.43;;;2.53;;
41966;SDS011;27656;53.068;8.818;2023-12-28T09:39:13;9.83;;;2.40;;
41966;SDS011;27656;53.068;8.818;2023-12-28T09:41:40;10.83;;;2.33;;
41966;SDS011;27656;53.068;8.818;2023-12-28T09:44:12;11.90;;;2.43;;
41966;SDS011;27656;53.068;8.818;2023-12-28T09:46:41;8.50;;;2.60;;
41966;SDS011;27656;53.068;8.818;2023-12-28T09:49:08;10.90;;;2.57;;
41966;SDS011;27656;53.068;8.818;2023-12-28T09:51:35;15.47;;;2.57;;
41966;SDS011;27656;53.068;8.818;2023-12-28T09:54:05;14.13;;;2.60;;
41966;SDS011;27656;53.068;8.818;2023-12-28T09:56:33;13.13;;;3.30;;
41966;SDS011;27656;53.068;8.818;2023-12-28T09:59:01;9.37;;;2.30;;
41966;SDS011;27656;53.068;8.818;2023-12-28T10:01:28;10.70;;;2.63;;
41966;SDS011;27656;53.068;8.818;2023-12-28T10:03:55;15.77;;;3.50;;
41966;SDS011;27656;53.068;8.818;2023-12-28T10:06:21;11.57;;;2.70;;
41966;SDS011;27656;53.068;8.818;2023-12-28T10:08:48;14.30;;;2.80;;
41966;SDS011;27656;53.068;8.818;2023-12-28T10:11:15;18.60;;;2.87;;
41966;SDS011;27656;53.068;8.818;2023-12-28T10:13:43;15.03;;;2.53;;
41966;SDS011;27656;53.068;8.818;2023-12-28T10:16:14;11.20;;;2.23;;
41966;SDS011;27656;53.068;8.818;2023-12-28T10:18:42;17.47;;;3.00;;
41966;SDS011;27656;53.068;8.818;2023-12-28T10:21:09;13.87;;;2.30;;
41966;SDS011;27656;53.068;8.818;2023-12-28T10:23:36;15.03;;;3.10;;
41966;SDS011;27656;53.068;8.818;2023-12-28T10:26:04;10.77;;;2.70;;
41966;SDS011;27656;53.068;8.818;2023-12-28T10:28:31;14.17;;;2.20;;
41966;SDS011;27656;53.068;8.818;2023-12-28T10:30:59;12.80;;;2.37;;
41966;SDS011;27656;53.068;8.818;2023-12-28T10:33:26;13.30;;;2.83;;
41966;SDS011;27656;53.068;8.818;2023-12-28T10:35:53;10.10;;;2.27;;
41966;SDS011;27656;53.068;8.818;2023-12-28T10:38:24;10.10;;;2.40;;
41966;SDS011;27656;53.068;8.818;2023-12-28T10:40:54;7.33;;;2.20;;
41966;SDS011;27656;53.068;8.818;2023-12-28T10:43:21;14.40;;;2.90;;
41966;SDS011;27656;53.068;8.818;2023-12-28T10:45:50;14.97;;;2.63;;
41966;SDS011;27656;53.068;8.818;2023-12-28T10:48:21;8.30;;;2.60;;
41966;SDS011;27656;53.068;8.818;2023-12-28T10:50:57;17.47;;;2.40;;
41966;SDS011;27656;53.068;8.818;2023-12-28T10:53:36;13.67;;;2.80;;
41966;SDS011;27656;53.068;8.818;2023-12-28T11:01:22;12.27;;;2.17;;
41966;SDS011;27656;53.068;8.818;2023-12-28T11:06:54;16.23;;;2.80;;
41966;SDS011;27656;53.068;8.818;2023-12-28T11:09:22;12.13;;;3.00;;
41966;SDS011;27656;53.068;8.818;2023-12-28T11:11:51;10.33;;;2.43;;
41966;SDS011;27656;53.068;8.818;2023-12-28T11:14:17;13.20;;;2.63;;
41966;SDS011;27656;53.068;8.818;2023-12-28T11:16:44;22.57;;;3.20;;
41966;SDS011;27656;53.068;8.818;2023-12-28T11:19:11;15.73;;;2.40;;
41966;SDS011;27656;53.068;8.818;2023-12-28T11:21:38;12.33;;;2.60;;
41966;SDS011;27656;53.068;8.818;2023-12-28T11:24:05;9.10;;;2.63;;
41966;SDS011;27656;53.068;8.818;2023-12-28T11:26:32;10.00;;;3.00;;
41966;SDS011;27656;53.068;8.818;2023-12-28T11:29:02;13.00;;;2.60;;
41966;SDS011;27656;53.068;8.818;2023-12-28T11:31:33;17.77;;;2.50;;
41966;SDS011;27656;53.068;8.818;2023-12-28T11:34:04;9.60;;;2.60;;
41966;SDS011;27656;53.068;8.818;2023-12-28T11:36:43;14.20;;;2.60;;
41966;SDS011;27656;53.068;8.818;2023-12-28T11:39:18;12.83;;;3.03;;
41966;SDS011;27656;53.068;8.818;2023-12-28T11:41:50;13.67;;;2.40;;
41966;SDS011;27656;53.068;8.818;2023-12-28T11:44:16;12.10;;;2.83;;
41966;SDS011;27656;53.068;8.818;2023-12-28T11:46:43;17.00;;;2.70;;
41966;SDS011;27656;53.068;8.818;2023-12-28T11:49:10;16.17;;;2.70;;
41966;SDS011;27656;53.068;8.818;2023-12-28T11:51:37;9.87;;;2.43;;
41966;SDS011;27656;53.068;8.818;2023-12-28T11:54:06;12.07;;;2.40;;
41966;SDS011;27656;53.068;8.818;2023-12-28T11:56:32;14.23;;;2.60;;
41966;SDS011;27656;53.068;8.818;2023-12-28T11:58:59;12.43;;;2.60;;
41966;SDS011;27656;53.068;8.818;2023-12-28T12:01:26;11.63;;;2.60;;
41966;SDS011;27656;53.068;8.818;2023-12-28T12:03:53;15.60;;;2.50;;
41966;SDS011;27656;53.068;8.818;2023-12-28T12:06:20;16.40;;;2.27;;
41966;SDS011;27656;53.068;8.818;2023-12-28T12:08:47;12.90;;;2.67;;
41966;SDS011;27656;53.068;8.818;2023-12-28T12:11:13;11.53;;;3.07;;
41966;SDS011;27656;53.068;8.818;2023-12-28T12:13:39;17.07;;;3.07;;
41966;SDS011;27656;53.068;8.818;2023-12-28T12:16:06;14.30;;;2.77;;
41966;SDS011;27656;53.068;8.818;2023-12-28T12:18:34;16.33;;;2.83;;
41966;SDS011;27656;53.068;8.818;2023-12-28T12:21:02;14.20;;;2.30;;
41966;SDS011;27656;53.068;8.818;2023-12-28T12:23:29;15.73;;;2.87;;
41966;SDS011;27656;53.068;8.818;2023-12-28T12:25:56;17.30;;;2.83;;
41966;SDS011;27656;53.068;8.818;2023-12-28T12:28:22;13.90;;;2.70;;
41966;SDS011;27656;53.068;8.818;2023-12-28T12:30:50;10.47;;;2.67;;
41966;SDS011;27656;53.068;8.818;2023-12-28T12:33:20;9.27;;;2.23;;
41966;SDS011;27656;53.068;8.818;2023-12-28T12:35:47;11.80;;;2.37;;
41966;SDS011;27656;53.068;8.818;2023-12-28T12:38:14;13.83;;;2.40;;
41966;SDS011;27656;53.068;8.818;2023-12-28T12:40:40;14.87;;;2.40;;
41966;SDS011;27656;53.068;8.818;2023-12-28T12:43:07;14.67;;;3.00;;
41966;SDS011;27656;53.068;8.818;2023-12-28T12:45:36;16.03;;;2.60;;
41966;SDS011;27656;53.068;8.818;2023-12-28T12:48:03;10.57;;;2.67;;
41966;SDS011;27656;53.068;8.818;2023-12-28T12:50:33;15.10;;;2.80;;
41966;SDS011;27656;53.068;8.818;2023-12-28T12:53:00;14.10;;;2.50;;
41966;SDS011;27656;53.068;8.818;2023-12-28T12:55:27;14.03;;;2.50;;
41966;SDS011;27656;53.068;8.818;2023-12-28T12:57:54;13.93;;;2.63;;
41966;SDS011;27656;53.068;8.818;2023-12-28T13:00:23;19.23;;;2.70;;
41966;SDS011;27656;53.068;8.818;2023-12-28T13:02:50;15.47;;;2.63;;
41966;SDS011;27656;53.068;8.818;2023-12-28T13:05:23;13.50;;;2.83;;
41966;SDS011;27656;53.068;8.818;2023-12-28T13:07:50;16.17;;;2.90;;
41966;SDS011;27656;53.068;8.818;2023-12-28T13:10:16;14.77;;;3.03;;
41966;SDS011;27656;53.068;8.818;2023-12-28T13:12:43;13.00;;;2.47;;
41966;SDS011;27656;53.068;8.818;2023-12-28T13:15:09;11.70;;;2.40;;
41966;SDS011;27656;53.068;8.818;2023-12-28T13:17:36;14.97;;;2.83;;
41966;SDS011;27656;53.068;8.818;2023-12-28T13:20:06;15.30;;;2.47;;
41966;SDS011;27656;53.068;8.818;2023-12-28T13:22:33;10.90;;;2.40;;
41966;SDS011;27656;53.068;8.818;2023-12-28T13:25:00;17.03;;;2.50;;
41966;SDS011;27656;53.068;8.818;2023-12-28T13:27:28;15.30;;;2.37;;
41966;SDS011;27656;53.068;8.818;2023-12-28T13:29:55;15.57;;;2.73;;
41966;SDS011;27656;53.068;8.818;2023-12-28T13:32:21;14.93;;;2.30;;
41966;SDS011;27656;53.068;8.818;2023-12-28T13:34:49;13.93;;;2.77;;
41966;SDS011;27656;53.068;8.818;2023-12-28T13:37:18;13.43;;;2.60;;
41966;SDS011;27656;53.068;8.818;2023-12-28T13:39:45;12.13;;;2.60;;
41966;SDS011;27656;53.068;8.818;2023-12-28T13:42:13;12.30;;;2.53;;
41966;SDS011;27656;53.068;8.818;2023-12-28T13:44:39;11.20;;;2.43;;
41966;SDS011;27656;53.068;8.818;2023-12-28T13:47:06;17.47;;;2.97;;
41966;SDS011;27656;53.068;8.818;2023-12-28T13:49:34;16.93;;;2.53;;
41966;SDS011;27656;53.068;8.818;2023-12-28T13:52:00;13.57;;;2.80;;
41966;SDS011;27656;53.068;8.818;2023-12-28T13:54:27;14.27;;;3.03;;
41966;SDS011;27656;53.068;8.818;2023-12-28T13:56:54;17.67;;;2.60;;
41966;SDS011;27656;53.068;8.818;2023-12-28T13:59:23;19.17;;;3.07;;
41966;SDS011;27656;53.068;8.818;2023-12-28T14:01:50;15.27;;;3.03;;
41966;SDS011;27656;53.068;8.818;2023-12-28T14:04:17;11.37;;;2.57;;
41966;SDS011;27656;53.068;8.818;2023-12-28T14:06:43;18.00;;;3.17;;
41966;SDS011;27656;53.068;8.818;2023-12-28T14:09:10;15.80;;;3.20;;
41966;SDS011;27656;53.068;8.818;2023-12-28T14:11:38;12.80;;;2.73;;
41966;SDS011;27656;53.068;8.818;2023-12-28T14:14:05;19.47;;;2.93;;
41966;SDS011;27656;53.068;8.818;2023-12-28T14:16:31;16.23;;;3.07;;
41966;SDS011;27656;53.068;8.818;2023-12-28T14:18:57;14.33;;;2.97;;
41966;SDS011;27656;53.068;8.818;2023-12-28T14:21:24;15.77;;;2.90;;
41966;SDS011;27656;53.068;8.818;2023-12-28T14:23:51;16.17;;;3.13;;
41966;SDS011;27656;53.068;8.818;2023-12-28T14:26:18;15.47;;;3.10;;
41966;SDS011;27656;53.068;8.818;2023-12-28T14:28:45;17.27;;;2.77;;
41966;SDS011;27656;53.068;8.818;2023-12-28T14:31:12;12.13;;;2.67;;
41966;SDS011;27656;53.068;8.818;2023-12-28T14:33:39;17.07;;;3.10;;
41966;SDS011;27656;53.068;8.818;2023-12-28T14:36:14;19.07;;;3.57;;
41966;SDS011;27656;53.068;8.818;2023-12-28T14:38:52;13.03;;;2.60;;
41966;SDS011;27656;53.068;8.818;2023-12-28T14:41:18;15.83;;;2.90;;
41966;SDS011;27656;53.068;8.818;2023-12-28T14:43:44;12.60;;;3.03;;
41966;SDS011;27656;53.068;8.818;2023-12-28T14:46:11;16.47;;;3.17;;
41966;SDS011;27656;53.068;8.818;2023-12-28T14:48:37;19.73;;;3.23;;
41966;SDS011;27656;53.068;8.818;2023-12-28T14:51:04;16.13;;;2.80;;
41966;SDS011;27656;53.068;8.818;2023-12-28T14:53:30;17.27;;;3.10;;
41966;SDS011;27656;53.068;8.818;2023-12-28T14:55:57;16.83;;;2.60;;
41966;SDS011;27656;53.068;8.818;2023-12-28T14:58:24;18.03;;;3.30;;